Time;durP1;ratioP1;P1;durP2;ratioP2;P2;SDS_P1;SDS_P2;PMS_P1;PMS_P2;Temp;Humidity;BMP_temperature;BMP_pressure;BME280_temperature;BME280_humidity;BME280_pressure;Samples;Min_cycle;Max_cycle;Signal;HPM_P1;HPM_P2
2022/06/28 00:03:03;;;;;;;7.37;4.90;;;;;;;19.34;60.16;100869.38;1793759;80;21217;-55
2022/06/28 00:06:08;;;;;;;9.93;4.40;;;;;;;19.34;60.20;100877.72;1793586;79;21221;-54
2022/06/28 00:09:15;;;;;;;5.87;4.72;;;;;;;19.35;60.28;100874.41;1772094;80;21238;-54
2022/06/28 00:12:22;;;;;;;5.75;4.70;;;;;;;19.33;60.30;100873.25;1751407;81;21237;-54
2022/06/28 00:18:51;;;;;;;6.22;4.70;;;;;;;19.25;60.32;100856.80;1751581;82;21170;-55
2022/06/28 00:21:58;;;;;;;6.47;4.20;;;;;;;19.20;60.37;100852.45;1751286;82;21572;-56
2022/06/28 00:25:03;;;;;;;6.15;4.42;;;;;;;19.18;60.45;100858.78;1751362;82;21260;-55
2022/06/28 00:28:09;;;;;;;6.72;5.15;;;;;;;19.14;60.52;100849.17;1751131;82;21253;-55
2022/06/28 00:31:15;;;;;;;7.08;4.78;;;;;;;19.13;60.61;100856.33;1751278;82;21209;-55
2022/06/28 00:34:22;;;;;;;9.33;4.80;;;;;;;19.11;60.64;100847.36;1751354;82;21197;-55
2022/06/28 00:37:29;;;;;;;10.38;5.10;;;;;;;19.06;60.61;100848.03;1751334;82;21198;-56
2022/06/28 00:40:35;;;;;;;7.80;4.97;;;;;;;19.01;60.69;100846.44;1751241;82;21332;-55
2022/06/28 00:43:43;;;;;;;6.78;5.03;;;;;;;18.98;60.81;100844.66;1750991;82;21765;-54
2022/06/28 00:46:48;;;;;;;8.05;4.95;;;;;;;18.95;60.84;100853.39;1751159;82;21241;-54
2022/06/28 00:49:55;;;;;;;9.00;5.05;;;;;;;18.91;60.97;100852.14;1751459;81;21197;-54
2022/06/28 00:53:15;;;;;;;9.83;5.10;;;;;;;18.89;61.06;100854.27;1751471;82;21221;-56
2022/06/28 00:56:22;;;;;;;9.28;4.75;;;;;;;18.88;61.17;100863.16;1761030;80;21198;-55
2022/06/28 00:59:29;;;;;;;6.67;4.78;;;;;;;18.87;61.27;100864.20;1794371;79;21170;-55
2022/06/28 01:02:34;;;;;;;11.08;5.40;;;;;;;18.85;61.27;100862.73;1794360;80;21177;-55
2022/06/28 01:05:42;;;;;;;7.92;5.03;;;;;;;18.78;61.24;100864.14;1794360;79;21213;-55
2022/06/28 01:08:51;;;;;;;7.70;5.33;;;;;;;18.72;61.29;100859.98;1777919;80;21197;-55
2022/06/28 01:11:56;;;;;;;7.83;5.22;;;;;;;18.66;61.41;100858.91;1794372;80;21228;-55
2022/06/28 01:15:01;;;;;;;6.65;5.33;;;;;;;18.62;61.52;100861.82;1794337;79;21185;-55
2022/06/28 01:18:10;;;;;;;6.08;5.37;;;;;;;18.58;61.59;100864.72;1798372;80;21781;-55
2022/06/28 01:21:21;;;;;;;7.65;5.65;;;;;;;18.54;61.68;100862.57;1799329;79;21189;-54
2022/06/28 01:24:27;;;;;;;8.13;5.53;;;;;;;18.53;61.89;100871.45;1799599;78;21260;-55
2022/06/28 01:27:36;;;;;;;8.90;5.80;;;;;;;18.52;61.96;100866.95;1799588;79;21228;-54
2022/06/28 01:30:41;;;;;;;7.75;5.50;;;;;;;18.52;62.09;100866.11;1799458;79;21279;-54
2022/06/28 01:33:50;;;;;;;8.18;5.35;;;;;;;18.50;62.15;100871.88;1799234;79;21204;-55
2022/06/28 01:36:52;;;;;;;8.00;5.53;;;;;;;18.48;62.20;100868.98;1799201;79;21260;-55
2022/06/28 01:39:57;;;;;;;6.05;5.25;;;;;;;18.46;62.28;100869.20;1799622;78;21188;-55
2022/06/28 01:43:04;;;;;;;10.48;6.08;;;;;;;18.46;62.38;100865.56;1799742;79;21168;-54
2022/06/28 01:46:11;;;;;;;7.03;5.28;;;;;;;18.46;62.48;100874.75;1799459;79;21257;-54
2022/06/28 01:49:18;;;;;;;8.95;5.42;;;;;;;18.48;62.53;100873.14;1799508;79;21189;-55
2022/06/28 01:52:24;;;;;;;10.85;5.85;;;;;;;18.47;62.62;100876.44;1799851;79;21208;-54
2022/06/28 01:55:32;;;;;;;7.12;5.85;;;;;;;18.47;62.64;100877.00;1799435;79;21236;-55
2022/06/28 01:58:55;;;;;;;9.15;5.53;;;;;;;18.47;62.73;100879.77;1731998;82;21306;-54
2022/06/28 02:02:06;;;;;;;7.65;5.75;;;;;;;18.46;62.80;100885.84;1799534;80;21232;-54
2022/06/28 02:05:16;;;;;;;6.50;5.35;;;;;;;18.48;62.87;100885.63;1797678;78;21189;-55
2022/06/28 02:08:22;;;;;;;13.53;6.30;;;;;;;18.48;62.89;100889.25;1799520;79;21220;-56
2022/06/28 02:11:30;;;;;;;15.35;6.45;;;;;;;18.48;62.98;100889.25;1799613;78;21243;-54
2022/06/28 02:14:37;;;;;;;9.60;5.92;;;;;;;18.48;62.98;100886.48;1799712;78;21244;-55
2022/06/28 02:17:44;;;;;;;7.22;5.33;;;;;;;18.45;62.94;100886.92;1798868;79;21304;-54
2022/06/28 02:20:50;;;;;;;9.73;6.47;;;;;;;18.47;63.05;100887.53;1799720;80;21263;-54
2022/06/28 02:23:55;;;;;;;9.55;6.15;;;;;;;18.49;63.17;100877.09;1799704;80;21146;-55
2022/06/28 02:27:02;;;;;;;10.05;6.03;;;;;;;18.54;63.30;100891.16;1799680;79;21324;-55
2022/06/28 02:30:08;;;;;;;6.85;5.03;;;;;;;18.59;63.32;100887.22;1799632;78;21208;-56
2022/06/28 02:33:17;;;;;;;9.30;5.87;;;;;;;18.63;63.26;100884.87;1799636;80;21157;-56
2022/06/28 02:43:10;;;;;;;9.95;6.50;;;;;;;18.73;63.45;100881.95;1799645;80;21193;-55
2022/06/28 02:46:16;;;;;;;11.20;6.90;;;;;;;18.76;63.46;100880.14;1799493;79;21193;-54
2022/06/28 02:49:23;;;;;;;14.98;8.48;;;;;;;18.79;63.44;100877.48;1799501;80;21217;-56
2022/06/28 02:52:29;;;;;;;10.82;7.42;;;;;;;18.84;63.54;100875.74;1799424;79;21232;-56
2022/06/28 02:55:35;;;;;;;12.93;6.95;;;;;;;18.88;63.55;100870.62;1799704;79;21378;-56
2022/06/28 02:58:43;;;;;;;9.15;6.92;;;;;;;18.91;63.58;100868.80;1799382;79;21381;-56
2022/06/28 03:01:51;;;;;;;9.00;6.70;;;;;;;18.97;63.70;100875.72;1799262;79;21201;-56
2022/06/28 03:04:59;;;;;;;10.65;6.45;;;;;;;19.02;63.73;100866.20;1799452;78;21741;-56
2022/06/28 03:08:06;;;;;;;9.50;5.95;;;;;;;19.11;63.82;100868.18;1799339;79;21177;-56
2022/06/28 03:11:11;;;;;;;12.37;6.87;;;;;;;19.19;63.90;100867.94;1799120;78;21220;-56
2022/06/28 03:14:18;;;;;;;7.95;6.00;;;;;;;19.28;63.92;100864.72;1799432;80;21181;-58
2022/06/28 03:17:27;;;;;;;11.28;7.00;;;;;;;19.38;63.96;100871.75;1799710;79;21252;-56
2022/06/28 03:20:36;;;;;;;14.47;6.92;;;;;;;19.47;63.97;100871.80;1762992;80;21216;-56
2022/06/28 03:23:42;;;;;;;11.95;7.22;;;;;;;19.56;64.03;100872.71;1762927;81;21327;-56
2022/06/28 03:26:48;;;;;;;12.90;6.47;;;;;;;19.66;64.05;100872.23;1763018;81;21240;-57
2022/06/28 03:29:56;;;;;;;12.60;7.30;;;;;;;19.74;64.03;100870.02;1762989;80;21217;-56
2022/06/28 03:33:05;;;;;;;10.43;6.28;;;;;;;19.84;64.06;100873.17;1762848;81;21174;-57
2022/06/28 03:36:12;;;;;;;10.40;6.55;;;;;;;19.92;64.08;100875.67;1762970;80;21291;-56
2022/06/28 03:39:20;;;;;;;8.23;6.00;;;;;;;20.01;64.09;100875.71;1762986;80;21185;-56
2022/06/28 03:42:25;;;;;;;8.83;6.20;;;;;;;20.11;64.11;100871.90;1763009;81;21744;-56
2022/06/28 03:45:32;;;;;;;8.25;6.17;;;;;;;20.22;64.15;100871.73;1763014;80;21213;-57
2022/06/28 03:48:49;;;;;;;9.28;6.30;;;;;;;20.33;64.16;100875.16;1732226;81;21205;-56
2022/06/28 03:51:59;;;;;;;12.95;6.45;;;;;;;20.42;64.18;100874.65;1763026;81;21232;-57
2022/06/28 03:55:24;;;;;;;8.53;6.87;;;;;;;20.53;64.23;100865.55;1681478;85;21798;-55
2022/06/28 03:58:30;;;;;;;9.98;5.83;;;;;;;20.64;64.23;100863.41;1680691;85;21172;-56
2022/06/28 04:01:38;;;;;;;11.30;6.60;;;;;;;20.74;64.23;100854.00;1756167;81;21189;-57
2022/06/28 04:04:42;;;;;;;9.40;6.33;;;;;;;20.85;64.26;100852.41;1762964;80;21204;-55
2022/06/28 04:07:49;;;;;;;16.37;6.55;;;;;;;20.97;64.26;100858.92;1763032;81;21321;-56
2022/06/28 04:11:17;;;;;;;9.45;6.65;;;;;;;21.07;64.28;100848.64;1751086;80;21188;-56
2022/06/28 04:14:23;;;;;;;7.83;6.22;;;;;;;21.20;64.38;100851.27;1763051;80;21271;-56
2022/06/28 04:17:29;;;;;;;8.93;6.20;;;;;;;21.31;64.41;100842.95;1763091;81;21694;-56
2022/06/28 04:20:44;;;;;;;10.60;5.85;;;;;;;21.43;64.42;100849.98;1760782;79;21811;-56
2022/06/28 04:23:50;;;;;;;8.05;6.22;;;;;;;21.53;64.45;100849.72;1799627;79;21161;-56
2022/06/28 04:26:57;;;;;;;9.58;6.20;;;;;;;21.67;64.46;100851.26;1799216;80;21260;-56
2022/06/28 04:30:05;;;;;;;8.65;6.05;;;;;;;21.79;64.46;100854.95;1799509;78;21355;-56
2022/06/28 04:33:12;;;;;;;8.35;6.50;;;;;;;21.90;64.42;100858.33;1799152;80;21157;-56
2022/06/28 04:36:17;;;;;;;8.03;6.30;;;;;;;22.01;64.39;100853.32;1799601;78;21193;-56
2022/06/28 04:39:24;;;;;;;10.23;6.47;;;;;;;22.11;64.38;100853.59;1799327;78;21165;-56
2022/06/28 04:42:33;;;;;;;8.55;6.70;;;;;;;22.21;64.35;100855.23;1799372;80;21177;-57
2022/06/28 04:45:42;;;;;;;8.80;6.35;;;;;;;22.31;64.34;100854.64;1799552;79;21240;-56
2022/06/28 04:48:49;;;;;;;8.30;6.42;;;;;;;22.41;64.27;100847.06;1799537;79;21252;-57
2022/06/28 04:51:58;;;;;;;11.83;7.05;;;;;;;22.52;64.29;100850.44;1780760;79;21372;-56
2022/06/28 04:55:11;;;;;;;11.93;6.00;;;;;;;22.65;64.27;100850.20;1768886;81;21235;-56
2022/06/28 04:58:21;;;;;;;9.13;6.22;;;;;;;22.77;64.25;100851.06;1795018;79;21181;-54
2022/06/28 05:01:27;;;;;;;10.78;5.85;;;;;;;22.88;64.20;100846.02;1809732;79;21351;-54
2022/06/28 05:04:33;;;;;;;10.58;7.53;;;;;;;23.00;64.17;100851.02;1780605;79;21838;-57
2022/06/28 05:08:03;;;;;;;9.65;6.28;;;;;;;23.10;64.10;100846.50;1773246;79;21713;-55
2022/06/28 05:11:12;;;;;;;8.90;6.05;;;;;;;23.21;64.01;100850.37;1755139;80;21229;-54
2022/06/28 05:14:42;;;;;;;10.98;5.80;;;;;;;23.32;63.96;100846.20;1780066;80;21590;-56
2022/06/28 05:17:54;;;;;;;7.12;5.10;;;;;;;23.43;63.96;100838.86;1758479;80;21191;-56
2022/06/28 05:21:03;;;;;;;12.80;5.30;;;;;;;23.52;63.96;100838.22;1743868;80;21292;-58
2022/06/28 05:24:08;;;;;;;11.80;5.20;;;;;;;23.63;63.94;100846.24;1720308;83;21205;-56
2022/06/28 05:27:17;;;;;;;10.23;4.72;;;;;;;23.73;63.86;100849.78;1728098;83;21560;-57
2022/06/28 05:30:24;;;;;;;13.45;5.10;;;;;;;23.84;63.76;100849.73;1729323;83;21217;-55
2022/06/28 05:33:30;;;;;;;9.05;4.70;;;;;;;23.94;63.58;100847.68;1728272;81;21794;-56
2022/06/28 05:36:39;;;;;;;13.75;4.70;;;;;;;24.01;63.46;100846.44;1722476;81;21230;-54
2022/06/28 05:39:48;;;;;;;11.70;4.47;;;;;;;24.09;63.37;100847.97;1723124;82;21232;-56
2022/06/28 05:42:54;;;;;;;12.58;5.03;;;;;;;24.18;63.28;100848.70;1732571;82;21193;-55
2022/06/28 05:46:01;;;;;;;16.82;6.20;;;;;;;24.30;63.19;100843.03;1702251;83;21426;-58
2022/06/28 05:49:09;;;;;;;16.20;5.55;;;;;;;24.38;63.10;100842.61;1720554;83;21186;-57
2022/06/28 05:52:16;;;;;;;14.75;4.90;;;;;;;24.45;62.99;100838.52;1709023;83;21226;-56
2022/06/28 05:55:22;;;;;;;9.58;3.92;;;;;;;24.55;62.90;100834.50;1729292;83;21237;-58
2022/06/28 05:58:22;;;;;;;7.87;4.37;;;;;;;24.61;62.75;100828.44;1728858;81;21656;-58
2022/06/28 06:01:15;;;;;;;9.65;4.62;;;;;;;24.70;62.75;100825.52;1733411;81;21212;-54
2022/06/28 06:04:07;;;;;;;6.45;4.33;;;;;;;24.77;62.69;100824.22;1691259;84;21710;-55
2022/06/28 06:07:07;;;;;;;7.47;4.45;;;;;;;24.84;62.58;100823.50;1732936;80;21141;-56
2022/06/28 06:09:57;;;;;;;7.85;4.05;;;;;;;24.93;62.40;100822.48;1701714;83;21257;-55
2022/06/28 06:12:50;;;;;;;11.83;5.20;;;;;;;25.01;62.28;100824.30;1725496;83;21222;-55
2022/06/28 06:15:38;;;;;;;8.35;4.78;;;;;;;25.10;62.27;100815.44;1723038;82;21205;-55
2022/06/28 06:18:31;;;;;;;22.10;8.73;;;;;;;25.18;62.19;100815.81;1725936;83;21256;-56
2022/06/28 06:21:39;;;;;;;11.35;5.58;;;;;;;25.26;62.07;100813.95;1735009;79;21308;-54
2022/06/28 06:24:45;;;;;;;7.33;4.70;;;;;;;25.34;61.95;100806.52;1749694;81;21824;-55
2022/06/28 06:27:56;;;;;;;21.48;6.53;;;;;;;25.41;61.89;100814.73;1776720;79;21222;-56
2022/06/28 06:31:02;;;;;;;8.20;4.45;;;;;;;25.47;61.78;100807.52;1756380;80;21201;-56
2022/06/28 06:34:18;;;;;;;8.30;4.22;;;;;;;25.57;61.73;100806.24;1757214;81;21322;-57
2022/06/28 06:37:26;;;;;;;7.17;3.95;;;;;;;25.65;61.60;100807.17;1751935;81;21319;-58
2022/06/28 06:40:33;;;;;;;13.10;5.40;;;;;;;25.73;61.50;100805.84;1742436;81;21222;-55
2022/06/28 06:43:44;;;;;;;23.73;7.10;;;;;;;25.79;61.37;100802.83;1747659;81;21224;-55
2022/06/28 06:47:00;;;;;;;8.55;4.83;;;;;;;25.87;61.33;100805.16;1721054;81;21281;-56
2022/06/28 06:50:09;;;;;;;8.48;4.67;;;;;;;25.97;61.24;100803.00;1735686;81;21733;-55
2022/06/28 06:53:16;;;;;;;11.48;4.60;;;;;;;26.04;61.09;100810.66;1702041;82;21722;-57
2022/06/28 06:56:22;;;;;;;10.63;5.22;;;;;;;26.12;61.02;100802.61;1744494;81;21688;-55
2022/06/28 06:59:40;;;;;;;11.75;5.00;;;;;;;26.19;60.88;100805.20;1736782;80;21269;-60
2022/06/28 07:02:50;;;;;;;10.48;5.08;;;;;;;26.27;60.78;100797.11;1747264;81;21729;-56
2022/06/28 07:06:00;;;;;;;7.33;4.70;;;;;;;26.36;60.70;100797.47;1754341;81;21259;-56
2022/06/28 07:09:06;;;;;;;19.52;6.08;;;;;;;26.45;60.63;100798.64;1757038;81;21185;-57
2022/06/28 07:12:14;;;;;;;10.55;5.33;;;;;;;26.53;60.52;100802.36;1773561;80;21942;-57
2022/06/28 07:15:20;;;;;;;6.00;4.97;;;;;;;26.63;60.46;100805.25;1740479;81;21248;-57
2022/06/28 07:18:25;;;;;;;6.10;5.05;;;;;;;26.73;60.36;100810.12;1742276;81;21213;-57
2022/06/28 07:21:38;;;;;;;7.60;5.12;;;;;;;26.79;60.27;100800.05;1751317;81;21574;-59
2022/06/28 07:24:45;;;;;;;15.85;6.15;;;;;;;26.85;60.13;100801.77;1739771;80;21751;-57
2022/06/28 07:27:55;;;;;;;7.20;4.85;;;;;;;26.90;60.04;100806.56;1763178;80;21182;-56
2022/06/28 07:31:02;;;;;;;8.93;4.75;;;;;;;26.94;59.87;100802.92;1766239;81;21208;-56
2022/06/28 07:34:10;;;;;;;9.63;4.55;;;;;;;27.01;59.82;100809.16;1762712;80;21776;-54
2022/06/28 07:37:17;;;;;;;8.38;4.62;;;;;;;27.08;59.71;100806.96;1772821;81;21767;-54
2022/06/28 07:40:25;;;;;;;5.10;4.45;;;;;;;27.11;59.49;100807.81;1755674;81;21292;-54
2022/06/28 07:43:43;;;;;;;6.80;4.33;;;;;;;27.17;59.42;100803.91;1765886;80;21657;-58
2022/06/28 07:47:01;;;;;;;10.03;4.85;;;;;;;27.27;59.42;100801.73;1787875;80;21221;-56
2022/06/28 07:53:37;;;;;;;12.37;4.75;;;;;;;27.39;59.28;100802.31;1786748;80;21724;-58
2022/06/28 07:56:54;;;;;;;11.12;4.65;;;;;;;27.43;59.19;100797.27;1756779;81;21182;-58
2022/06/28 08:00:01;;;;;;;7.03;4.62;;;;;;;27.52;59.17;100804.62;1772744;80;21256;-57
2022/06/28 08:03:09;;;;;;;8.58;4.55;;;;;;;27.58;59.09;100804.36;1763639;80;21727;-57
2022/06/28 08:06:15;;;;;;;10.08;4.40;;;;;;;27.67;59.08;100799.87;1783059;80;21208;-61
2022/06/28 08:09:23;;;;;;;8.10;4.58;;;;;;;27.74;59.03;100801.88;1775090;81;21274;-58
2022/06/28 08:12:30;;;;;;;8.60;4.60;;;;;;;27.83;58.95;100799.33;1775189;80;21173;-56
2022/06/28 08:15:41;;;;;;;5.17;4.30;;;;;;;27.93;58.96;100802.76;1763220;81;21271;-54
2022/06/28 08:18:47;;;;;;;10.72;4.78;;;;;;;27.99;58.86;100805.30;1737631;82;21232;-58
2022/06/28 08:21:56;;;;;;;4.95;4.42;;;;;;;28.06;58.78;100803.06;1725181;81;21198;-57
2022/06/28 08:25:04;;;;;;;9.45;4.65;;;;;;;28.12;58.70;100806.72;1766121;80;21782;-58
2022/06/28 08:28:12;;;;;;;5.95;4.58;;;;;;;28.18;58.64;100807.84;1725218;82;21253;-58
2022/06/28 08:31:26;;;;;;;6.90;4.60;;;;;;;28.24;58.54;100800.27;1727357;83;21201;-58
2022/06/28 08:34:36;;;;;;;7.60;4.58;;;;;;;28.29;58.46;100798.86;1722516;82;21233;-58
2022/06/28 08:37:42;;;;;;;5.75;4.67;;;;;;;28.38;58.48;100806.45;1731550;83;21173;-56
2022/06/28 08:40:50;;;;;;;7.37;4.25;;;;;;;28.48;58.41;100802.82;1710502;83;22158;-57
2022/06/28 08:43:57;;;;;;;6.12;4.60;;;;;;;28.56;58.33;100814.94;1687342;82;21231;-57
2022/06/28 08:47:04;;;;;;;8.15;4.72;;;;;;;28.60;58.18;100796.31;1727512;82;21213;-58
2022/06/28 08:50:15;;;;;;;10.13;4.80;;;;;;;28.67;58.24;100799.11;1702737;84;21535;-56
2022/06/28 08:53:21;;;;;;;6.72;4.50;;;;;;;28.78;58.28;100786.68;1703675;83;21224;-56
2022/06/28 08:56:28;;;;;;;9.73;4.70;;;;;;;28.90;58.17;100784.41;1724430;83;21719;-55
2022/06/28 08:59:33;;;;;;;9.05;5.55;;;;;;;28.98;58.02;100786.64;1713879;83;21860;-56
2022/06/28 09:02:40;;;;;;;6.40;4.85;;;;;;;29.10;57.98;100778.72;1707435;82;21272;-56
2022/06/28 09:05:46;;;;;;;7.45;4.62;;;;;;;29.20;57.86;100778.69;1671951;86;21624;-56
2022/06/28 09:08:56;;;;;;;8.30;4.95;;;;;;;29.29;57.74;100778.09;1676211;84;21286;-56
2022/06/28 09:12:08;;;;;;;5.78;4.62;;;;;;;29.42;57.73;100762.77;1668473;86;21217;-56
2022/06/28 09:15:23;;;;;;;8.55;4.85;;;;;;;29.58;57.66;100757.31;1682213;85;21248;-58
2022/06/28 09:18:46;;;;;;;7.67;4.87;;;;;;;29.81;57.58;100760.84;1710290;83;21256;-59
2022/06/28 09:21:55;;;;;;;7.97;4.55;;;;;;;29.99;57.39;100758.74;1694321;84;21198;-57
2022/06/28 09:25:01;;;;;;;5.90;5.08;;;;;;;30.14;57.15;100751.57;1727358;79;21220;-57
2022/06/28 09:28:10;;;;;;;8.15;5.05;;;;;;;30.27;57.01;100749.48;1757790;80;21161;-57
2022/06/28 09:31:32;;;;;;;7.80;5.00;;;;;;;30.29;56.78;100747.20;1726087;82;21209;-57
2022/06/28 09:34:42;;;;;;;6.00;4.30;;;;;;;30.37;56.63;100745.71;1736335;82;22084;-57
2022/06/28 09:37:55;;;;;;;7.03;5.33;;;;;;;30.31;56.37;100743.52;1722487;82;21185;-57
2022/06/28 09:41:02;;;;;;;5.87;4.67;;;;;;;30.43;56.38;100742.55;1720250;83;21288;-56
2022/06/28 09:44:10;;;;;;;6.47;5.12;;;;;;;30.67;56.12;100729.84;1735154;81;21194;-57
2022/06/28 09:47:21;;;;;;;8.53;4.92;;;;;;;30.67;56.12;100729.84;1747378;82;21210;-57
2022/06/28 09:50:28;;;;;;;7.45;5.35;;;;;;;30.80;56.01;100726.34;1735200;82;21273;-56
2022/06/28 09:53:45;;;;;;;6.15;4.70;;;;;;;30.93;55.83;100717.70;1748633;81;21746;-57
2022/06/28 09:57:00;;;;;;;7.37;4.97;;;;;;;31.10;55.68;100720.86;1739256;81;21679;-56
2022/06/28 10:00:08;;;;;;;7.70;5.33;;;;;;;31.20;55.67;100717.91;1740848;81;21749;-57
2022/06/28 10:03:14;;;;;;;7.15;5.45;;;;;;;31.25;55.29;100707.94;1732292;82;21253;-59
2022/06/28 10:06:21;;;;;;;7.50;6.05;;;;;;;31.26;55.25;100709.61;1740195;82;21431;-59
2022/06/28 10:09:32;;;;;;;7.00;5.75;;;;;;;31.29;55.09;100715.52;1739513;82;21289;-59
2022/06/28 10:16:31;;;;;;;5.70;5.10;;;;;;;31.41;54.86;100714.50;1723356;82;21243;-60
2022/06/28 10:19:41;;;;;;;6.20;5.60;;;;;;;31.54;54.73;100714.34;1735667;82;21313;-59
2022/06/28 10:22:46;;;;;;;6.40;5.80;;;;;;;31.72;54.66;100712.06;1725719;81;21277;-59
2022/06/28 10:26:26;;;;;;;8.13;5.00;;;;;;;31.76;54.34;100712.55;1742323;80;21311;-58
2022/06/28 10:29:36;;;;;;;7.37;6.20;;;;;;;31.83;54.27;100700.27;1796568;80;21264;-59
2022/06/28 10:33:14;;;;;;;6.50;5.05;;;;;;;31.90;54.20;100700.73;1782336;80;21724;-59
2022/06/28 10:36:26;;;;;;;13.45;5.40;;;;;;;31.94;54.06;100694.73;1765815;81;21208;-58
2022/06/28 10:39:34;;;;;;;7.55;5.37;;;;;;;32.02;53.96;100696.61;1779238;80;21221;-59
2022/06/28 10:42:55;;;;;;;7.65;5.33;;;;;;;32.09;53.68;100692.21;1735337;82;21231;-60
2022/06/28 10:46:15;;;;;;;6.40;5.20;;;;;;;32.11;53.54;100689.92;1752875;81;21181;-60
2022/06/28 10:49:22;;;;;;;8.08;5.33;;;;;;;32.20;53.45;100680.95;1748829;81;21239;-60
2022/06/28 10:52:42;;;;;;;6.40;5.20;;;;;;;32.34;53.21;100674.73;1765433;81;21208;-60
2022/06/28 10:55:51;;;;;;;;;;;;;;;32.38;52.96;100688.56;1761783;81;21204;-60
2022/06/28 10:59:09;;;;;;;7.70;5.08;;;;;;;32.43;52.73;100675.71;1745183;81;20212;-60
2022/06/28 11:02:17;;;;;;;9.28;5.58;;;;;;;32.51;52.63;100670.73;1762392;81;21240;-58
2022/06/28 11:05:26;;;;;;;19.17;6.62;;;;;;;32.61;52.47;100661.19;1756396;81;21709;-60
2022/06/28 11:08:58;;;;;;;7.25;5.65;;;;;;;32.68;52.24;100663.86;1730795;79;21494;-58
2022/06/28 11:12:25;;;;;;;9.25;5.20;;;;;;;32.75;52.08;100669.11;1771318;80;21735;-59
2022/06/28 11:15:43;;;;;;;6.62;5.25;;;;;;;32.78;51.85;100655.14;1761700;81;21725;-57
2022/06/28 11:18:53;;;;;;;9.33;5.30;;;;;;;32.82;51.73;100659.05;1733252;82;21197;-59
2022/06/28 11:22:06;;;;;;;7.58;5.45;;;;;;;32.74;51.46;100649.85;1766222;81;21243;-59
2022/06/28 11:25:16;;;;;;;7.37;5.70;;;;;;;32.62;51.31;100655.20;1741282;81;21217;-60
2022/06/28 11:28:22;;;;;;;7.72;5.37;;;;;;;32.52;51.25;100650.32;1786906;80;21742;-59
2022/06/28 11:31:30;;;;;;;12.23;6.80;;;;;;;32.37;51.10;100653.44;1773188;80;21240;-59
2022/06/28 11:34:37;;;;;;;10.75;6.30;;;;;;;32.29;51.08;100647.05;1790022;79;21750;-58
2022/06/28 11:38:04;;;;;;;8.08;5.87;;;;;;;32.31;51.01;100655.52;1733948;82;21204;-58
2022/06/28 11:41:12;;;;;;;7.50;5.60;;;;;;;32.19;50.82;100659.41;1784854;80;21324;-58
2022/06/28 11:44:22;;;;;;;6.55;5.90;;;;;;;32.16;50.82;100647.89;1761875;81;21208;-57
2022/06/28 11:47:32;;;;;;;8.60;6.20;;;;;;;32.23;50.76;100645.47;1795825;80;21219;-56
2022/06/28 11:51:04;;;;;;;5.90;5.30;;;;;;;32.40;50.73;100653.66;1796005;80;21327;-58
2022/06/28 11:54:16;;;;;;;7.67;5.40;;;;;;;32.35;50.43;100649.47;1784149;79;21742;-59
2022/06/28 11:57:26;;;;;;;12.95;6.30;;;;;;;32.10;50.23;100652.80;1766619;80;21276;-58
2022/06/28 12:00:33;;;;;;;8.90;5.45;;;;;;;32.01;50.40;100637.67;1794706;80;21741;-58
2022/06/28 12:03:42;;;;;;;7.08;5.50;;;;;;;32.13;50.45;100642.25;1794122;80;21197;-57
2022/06/28 12:06:50;;;;;;;8.40;5.53;;;;;;;32.18;50.26;100628.56;1795592;80;21228;-57
2022/06/28 12:09:55;;;;;;;9.63;5.40;;;;;;;32.24;50.11;100632.41;1759861;80;21269;-57
2022/06/28 12:13:05;;;;;;;9.63;4.97;;;;;;;32.30;49.97;100628.31;1716312;81;21174;-60
2022/06/28 12:16:20;;;;;;;8.43;5.12;;;;;;;32.33;49.83;100620.63;1775687;79;21157;-58
2022/06/28 12:19:31;;;;;;;6.03;4.85;;;;;;;32.35;49.81;100621.73;1753776;81;21213;-58
2022/06/28 12:22:38;;;;;;;7.08;4.72;;;;;;;32.38;49.59;100621.13;1749933;81;21248;-60
2022/06/28 12:25:44;;;;;;;4.87;4.37;;;;;;;32.40;49.61;100623.90;1733461;82;21262;-59
2022/06/28 12:28:49;;;;;;;5.67;4.17;;;;;;;32.40;49.34;100616.81;1741191;81;21525;-60
2022/06/28 12:31:55;;;;;;;6.42;4.70;;;;;;;32.40;49.08;100605.47;1768363;80;21202;-57
2022/06/28 12:35:15;;;;;;;9.90;4.80;;;;;;;32.39;48.90;100611.45;1766044;80;21244;-59
2022/06/28 12:38:25;;;;;;;7.75;4.85;;;;;;;32.39;48.88;100595.30;1763370;80;21199;-57
2022/06/28 12:41:32;;;;;;;7.00;5.05;;;;;;;32.48;48.82;100604.74;1726026;83;21228;-57
2022/06/28 12:44:41;;;;;;;9.40;5.55;;;;;;;32.53;48.62;100601.80;1761999;80;21207;-60
2022/06/28 12:47:47;;;;;;;8.63;5.03;;;;;;;32.52;48.41;100593.05;1761112;80;21930;-59
2022/06/28 12:50:55;;;;;;;6.10;4.60;;;;;;;32.53;48.29;100594.72;1766176;80;21791;-60
2022/06/28 12:54:03;;;;;;;6.20;4.90;;;;;;;32.54;48.14;100590.71;1765882;80;21177;-59
2022/06/28 12:57:14;;;;;;;7.80;4.65;;;;;;;32.52;47.95;100588.80;1761689;81;21558;-59
2022/06/28 13:00:21;;;;;;;5.75;4.33;;;;;;;32.50;47.89;100599.60;1762840;81;21239;-59
2022/06/28 13:03:27;;;;;;;5.20;4.47;;;;;;;32.54;47.82;100602.66;1762557;81;21192;-60
2022/06/28 13:06:36;;;;;;;10.30;5.22;;;;;;;32.57;47.69;100595.75;1745341;81;21883;-58
2022/06/28 13:09:44;;;;;;;5.60;4.72;;;;;;;32.60;47.51;100588.02;1729135;81;21209;-56
2022/06/28 13:12:54;;;;;;;6.65;5.03;;;;;;;32.62;47.46;100595.64;1762897;81;21176;-58
2022/06/28 13:16:01;;;;;;;8.83;4.95;;;;;;;32.62;47.36;100597.66;1732039;83;21217;-58
2022/06/28 13:19:08;;;;;;;7.40;5.05;;;;;;;32.61;47.25;100582.63;1734087;82;21645;-58
2022/06/28 13:22:25;;;;;;;7.55;5.47;;;;;;;32.58;47.12;100581.00;1734207;82;21351;-58
2022/06/28 13:25:31;;;;;;;6.53;5.42;;;;;;;32.56;47.03;100582.73;1763913;81;21753;-59
2022/06/28 13:28:40;;;;;;;7.12;5.40;;;;;;;32.56;46.95;100582.73;1793076;79;21321;-59
2022/06/28 13:31:49;;;;;;;8.50;5.85;;;;;;;32.53;46.89;100586.21;1760387;81;21264;-58
2022/06/28 13:34:58;;;;;;;7.75;6.12;;;;;;;32.56;46.83;100583.30;1735934;82;21221;-59
2022/06/28 13:38:09;;;;;;;9.75;6.15;;;;;;;32.51;46.69;100582.84;1735889;82;22192;-58
2022/06/28 13:41:16;;;;;;;9.33;6.15;;;;;;;32.44;46.59;100579.61;1738873;81;21419;-53
2022/06/28 13:44:25;;;;;;;9.13;6.15;;;;;;;32.41;46.60;100563.80;1728055;82;21229;-53
2022/06/28 13:47:32;;;;;;;9.08;5.87;;;;;;;32.44;46.58;100556.08;1718119;82;21213;-56
2022/06/28 13:50:41;;;;;;;7.95;6.17;;;;;;;32.47;46.51;100552.04;1698618;83;21206;-55
2022/06/28 13:53:50;;;;;;;6.58;5.87;;;;;;;32.51;46.41;100543.75;1717490;82;21784;-55
2022/06/28 13:56:58;;;;;;;6.50;5.87;;;;;;;32.47;46.22;100533.61;1759829;81;21357;-51
2022/06/28 14:00:03;;;;;;;7.40;6.55;;;;;;;32.45;46.31;100533.08;1759692;81;21202;-54
2022/06/28 14:03:12;;;;;;;7.75;6.70;;;;;;;32.53;46.34;100530.92;1710809;82;21208;-55
2022/06/28 14:06:23;;;;;;;9.53;6.90;;;;;;;32.57;46.24;100529.11;1728918;82;21208;-55
2022/06/28 14:09:27;;;;;;;8.40;6.70;;;;;;;32.59;46.24;100528.80;1728530;82;21201;-55
2022/06/28 14:12:37;;;;;;;9.55;6.60;;;;;;;32.68;46.14;100548.17;1719044;82;21694;-56
2022/06/28 14:15:44;;;;;;;8.60;6.45;;;;;;;32.71;46.07;100554.06;1714817;82;21214;-55
2022/06/28 14:18:51;;;;;;;7.03;6.33;;;;;;;32.77;46.06;100563.28;1699526;84;21216;-54
2022/06/28 14:22:00;;;;;;;7.83;6.53;;;;;;;32.83;45.99;100548.66;1728572;83;21201;-56
2022/06/28 14:25:06;;;;;;;8.38;6.40;;;;;;;32.85;45.94;100546.36;1706185;84;21363;-56
2022/06/28 14:28:12;;;;;;;7.62;6.83;;;;;;;32.85;45.88;100553.45;1697656;84;21206;-57
2022/06/28 14:31:19;;;;;;;7.17;6.22;;;;;;;32.90;45.89;100544.86;1729613;82;21717;-55
2022/06/28 14:34:26;;;;;;;9.30;6.30;;;;;;;32.91;45.80;100552.77;1791681;79;21202;-56
2022/06/28 14:37:32;;;;;;;7.00;6.28;;;;;;;32.93;45.82;100558.40;1799347;79;21193;-56
2022/06/28 14:40:44;;;;;;;7.50;6.60;;;;;;;32.91;45.72;100552.20;1799480;79;21208;-56
2022/06/28 14:43:54;;;;;;;7.83;6.47;;;;;;;33.03;45.76;100562.39;1799508;79;21272;-54
2022/06/28 14:47:00;;;;;;;8.85;5.95;;;;;;;33.16;45.70;100570.03;1799504;79;21153;-57
2022/06/28 14:50:09;;;;;;;9.45;6.22;;;;;;;33.29;45.66;100553.53;1798512;79;21263;-57
2022/06/28 14:53:15;;;;;;;8.48;6.50;;;;;;;33.52;45.63;100542.20;1797968;79;21764;-56
2022/06/28 14:56:22;;;;;;;7.60;6.90;;;;;;;33.75;45.54;100559.47;1798816;79;21231;-56